Holguin, Cuba
Current Conditions -  °F | °C
As of 1:50 PM on Friday 31 Oct 2014 (Local Time) from MUHG Reporting Station
Broken Clouds Broken Clouds  
Wind Chill: 88°   Ceiling: 2500
Heat Index: 93°   Visibility: 6mi
Dew Point: 70°   Wind: 6mph
Humidity: 55%   Direction: 350°N
Pressure: 29.83"   Gusts: NA
Location:  20.89°N, 76.25°W
Report Text: MUHG 311750Z 35005KT 310V030 9000 BKN025TCU 31/21 Q1010
Loading
Personal Weather Stations






























Interactive Weather Map
Tropical Storm Tracking
New forecast layout! Learn more

10-Day Weather Forecast

Advertisements
Track Severe Weather on mobile